Flight Track Log - Related Links

Times and Time Zones

All times are in EDT time to prevent confusion due to time zone crossing. See the CBJ5166 flight status page for this flight to view local times or setup timezone preferences in your user account.

Time Position Orientation Groundspeed Altitude Reporting Facility
EDT Latitude Longitude Course Direction KTS MPH feet Rate Location/Type
Fri 01:14:00 AM 26.4264 100.6866 123° Southeast  Level Estimated
Fri 01:15:00 AM 26.3902 100.7494 123° Southeast  Level Estimated
Fri 01:16:00 AM 26.3539 100.8122 123° Southeast  Level Estimated
Fri 01:17:00 AM 26.3176 100.8749 123° Southeast  Level Estimated
Fri 01:18:00 AM 26.2813 100.9376 123° Southeast  Level Estimated
Fri 01:19:00 AM 26.2450 101.0003 123° Southeast  Level Estimated
Fri 01:20:00 AM 26.2086 101.0629 123° Southeast  Level Estimated
Fri 01:21:00 AM 26.1722 101.1254 123° Southeast  Level Estimated
Fri 01:22:00 AM 26.1358 101.1880 123° Southeast  Level Estimated
Fri 01:23:00 AM 26.0994 101.2505 123° Southeast  Level Estimated
Fri 01:24:00 AM 26.0629 101.3129 123° Southeast  Level Estimated
Fri 01:25:00 AM 26.0264 101.3754 123° Southeast  Level Estimated
Fri 01:26:00 AM 25.9899 101.4377 123° Southeast  Level Estimated
Fri 01:27:00 AM 25.9533 101.5001 123° Southeast  Level Estimated
Fri 01:28:00 AM 25.9168 101.5624 123° Southeast  Level Estimated
Fri 01:29:00 AM 25.8802 101.6246 123° Southeast  Level Estimated
Fri 01:30:00 AM 25.8435 101.6869 123° Southeast  Level Estimated
Fri 01:31:00 AM 25.8069 101.7490 123° Southeast  Level Estimated
Fri 01:32:00 AM 25.7702 101.8112 123° Southeast  Level Estimated
Fri 01:33:00 AM 25.7335 101.8733 123° Southeast  Level Estimated
Fri 01:34:00 AM 25.6968 101.9354 123° Southeast  Level Estimated
Fri 01:35:00 AM 25.6600 101.9974 123° Southeast  Level Estimated
Fri 01:36:00 AM 25.6232 102.0594 123° Southeast  Level Estimated
Fri 01:37:00 AM 25.5864 102.1214 123° Southeast  Level Estimated
Fri 01:38:00 AM 25.5496 102.1833 123° Southeast  Level Estimated
Fri 01:39:00 AM 25.5127 102.2451 123° Southeast  Level Estimated
Fri 01:40:00 AM 25.4758 102.3070 123° Southeast  Level Estimated
Fri 01:41:00 AM 25.4389 102.3688 123° Southeast  Level Estimated
Fri 01:42:00 AM 25.4019 102.4306 124° Southeast  Level Estimated
Fri 01:43:00 AM 25.3650 102.4923 124° Southeast  Level Estimated
Fri 01:44:00 AM 25.3280 102.5540 124° Southeast  Level Estimated
Fri 01:45:00 AM 25.2910 102.6156 124° Southeast  Level Estimated
Fri 01:46:00 AM 25.2539 102.6772 124° Southeast  Level Estimated
Fri 01:47:00 AM 25.2168 102.7388 124° Southeast  Level Estimated
Fri 01:48:00 AM 25.1798 102.8004 124° Southeast  Level Estimated
Fri 01:49:00 AM 25.1426 102.8619 124° Southeast  Level Estimated
Fri 01:50:00 AM 25.1055 102.9233 124° Southeast  Level Estimated
Fri 01:51:00 AM 25.1019 102.9292 124° Southeast  Level Estimated
Fri 01:52:00 AM 25.1019 102.9292 North  Level Estimated
Fri 01:53:00 AM 25.1019 102.9292 North  Level Estimated
Fri 01:54:00 AM 25.1019 102.9292 North  Level Estimated
Fri 01:55:00 AM 25.1019 102.9292 North  Level Estimated
Fri 01:56:00 AM 25.1019 102.9292 North  Level Estimated
Fri 01:57:00 AM 25.1019 102.9292 North  Level Estimated

Login

Don't have an account? Register now (free) for customized features, flight alerts, and more!